sensor_id;sensor_type;location;lat;lon;timestamp;pressure;altitude;pressure_sealevel;temperature;humidity
44441;BME280;30146;52.268;20.944;2023-07-08T00:00:43;100920.05;;;18.88;47.16
44441;BME280;30146;52.268;20.944;2023-07-08T00:03:15;100917.88;;;18.85;47.22
44441;BME280;30146;52.268;20.944;2023-07-08T00:05:47;100914.27;;;18.84;47.28
44441;BME280;30146;52.268;20.944;2023-07-08T00:08:20;100915.21;;;18.82;47.30
44441;BME280;30146;52.268;20.944;2023-07-08T00:10:51;100916.28;;;18.81;47.11
44441;BME280;30146;52.268;20.944;2023-07-08T00:13:22;100917.35;;;18.79;47.04
44441;BME280;30146;52.268;20.944;2023-07-08T00:15:53;100919.15;;;18.77;47.33
44441;BME280;30146;52.268;20.944;2023-07-08T00:18:24;100914.15;;;18.77;47.33
44441;BME280;30146;52.268;20.944;2023-07-08T00:20:55;100913.63;;;18.77;47.38
44441;BME280;30146;52.268;20.944;2023-07-08T00:23:28;100917.56;;;18.78;47.40
44441;BME280;30146;52.268;20.944;2023-07-08T00:25:59;100919.46;;;18.79;47.47
44441;BME280;30146;52.268;20.944;2023-07-08T00:28:30;100923.06;;;18.80;47.50
44441;BME280;30146;52.268;20.944;2023-07-08T00:31:01;100925.16;;;18.79;47.50
44441;BME280;30146;52.268;20.944;2023-07-08T00:33:33;100925.02;;;18.79;47.36
44441;BME280;30146;52.268;20.944;2023-07-08T00:36:10;100926.47;;;18.76;47.45
44441;BME280;30146;52.268;20.944;2023-07-08T00:38:43;100926.86;;;18.75;47.47
44441;BME280;30146;52.268;20.944;2023-07-08T00:41:18;100926.42;;;18.73;47.40
44441;BME280;30146;52.268;20.944;2023-07-08T00:43:52;100929.94;;;18.71;47.43
44441;BME280;30146;52.268;20.944;2023-07-08T00:46:34;100929.79;;;18.71;47.58
44441;BME280;30146;52.268;20.944;2023-07-08T00:49:26;100931.09;;;18.68;47.45
44441;BME280;30146;52.268;20.944;2023-07-08T00:52:20;100929.77;;;18.65;47.62
44441;BME280;30146;52.268;20.944;2023-07-08T00:54:54;100929.52;;;18.63;47.76
44441;BME280;30146;52.268;20.944;2023-07-08T00:57:27;100930.15;;;18.59;47.67
44441;BME280;30146;52.268;20.944;2023-07-08T01:00:03;100931.45;;;18.57;47.74
44441;BME280;30146;52.268;20.944;2023-07-08T01:02:38;100929.63;;;18.55;47.83
44441;BME280;30146;52.268;20.944;2023-07-08T01:05:14;100931.41;;;18.52;47.89
44441;BME280;30146;52.268;20.944;2023-07-08T01:07:51;100927.38;;;18.49;47.90
44441;BME280;30146;52.268;20.944;2023-07-08T01:10:28;100928.36;;;18.45;48.01
44441;BME280;30146;52.268;20.944;2023-07-08T01:13:05;100929.23;;;18.40;48.00
44441;BME280;30146;52.268;20.944;2023-07-08T01:15:42;100932.52;;;18.35;48.09
44441;BME280;30146;52.268;20.944;2023-07-08T01:18:16;100932.72;;;18.29;48.05
44441;BME280;30146;52.268;20.944;2023-07-08T01:20:50;100933.77;;;18.22;48.10
44441;BME280;30146;52.268;20.944;2023-07-08T01:23:25;100931.06;;;18.15;48.27
44441;BME280;30146;52.268;20.944;2023-07-08T01:25:57;100927.52;;;18.07;48.15
44441;BME280;30146;52.268;20.944;2023-07-08T01:28:30;100922.68;;;18.01;48.25
44441;BME280;30146;52.268;20.944;2023-07-08T01:31:01;100924.02;;;17.97;48.49
44441;BME280;30146;52.268;20.944;2023-07-08T01:33:34;100921.02;;;17.94;48.55
44441;BME280;30146;52.268;20.944;2023-07-08T01:36:07;100923.55;;;17.90;48.73
44441;BME280;30146;52.268;20.944;2023-07-08T01:38:39;100922.96;;;17.86;48.86
44441;BME280;30146;52.268;20.944;2023-07-08T01:41:14;100924.39;;;17.84;48.90
44441;BME280;30146;52.268;20.944;2023-07-08T01:43:46;100925.85;;;17.81;49.14
44441;BME280;30146;52.268;20.944;2023-07-08T01:46:20;100926.23;;;17.80;49.34
44441;BME280;30146;52.268;20.944;2023-07-08T01:48:55;100923.34;;;17.79;49.47
44441;BME280;30146;52.268;20.944;2023-07-08T01:51:27;100923.88;;;17.78;49.65
44441;BME280;30146;52.268;20.944;2023-07-08T01:53:59;100922.19;;;17.77;49.75
44441;BME280;30146;52.268;20.944;2023-07-08T01:56:30;100921.70;;;17.76;50.01
44441;BME280;30146;52.268;20.944;2023-07-08T01:59:01;100925.02;;;17.75;49.96
44441;BME280;30146;52.268;20.944;2023-07-08T02:01:32;100921.25;;;17.73;50.18
44441;BME280;30146;52.268;20.944;2023-07-08T02:04:03;100922.33;;;17.72;50.25
44441;BME280;30146;52.268;20.944;2023-07-08T02:06:34;100919.23;;;17.72;50.48
44441;BME280;30146;52.268;20.944;2023-07-08T02:09:08;100917.33;;;17.71;50.56
44441;BME280;30146;52.268;20.944;2023-07-08T02:11:39;100912.01;;;17.70;50.64
44441;BME280;30146;52.268;20.944;2023-07-08T02:14:10;100905.80;;;17.69;50.73
44441;BME280;30146;52.268;20.944;2023-07-08T02:16:41;100905.33;;;17.68;50.73
44441;BME280;30146;52.268;20.944;2023-07-08T02:19:13;100907.60;;;17.67;50.79
44441;BME280;30146;52.268;20.944;2023-07-08T02:21:44;100909.06;;;17.64;50.88
44441;BME280;30146;52.268;20.944;2023-07-08T02:24:15;100908.30;;;17.61;51.01
44441;BME280;30146;52.268;20.944;2023-07-08T02:26:47;100910.58;;;17.60;51.09
44441;BME280;30146;52.268;20.944;2023-07-08T02:29:18;100910.64;;;17.58;51.20
44441;BME280;30146;52.268;20.944;2023-07-08T02:31:49;100908.09;;;17.57;51.19
44441;BME280;30146;52.268;20.944;2023-07-08T02:34:20;100905.92;;;17.54;51.32
44441;BME280;30146;52.268;20.944;2023-07-08T02:36:51;100904.59;;;17.52;51.48
44441;BME280;30146;52.268;20.944;2023-07-08T02:39:22;100902.56;;;17.51;51.46
44441;BME280;30146;52.268;20.944;2023-07-08T02:41:53;100904.49;;;17.49;51.61
44441;BME280;30146;52.268;20.944;2023-07-08T02:44:24;100899.30;;;17.49;51.58
44441;BME280;30146;52.268;20.944;2023-07-08T02:46:56;100901.39;;;17.49;51.71
44441;BME280;30146;52.268;20.944;2023-07-08T02:49:27;100903.00;;;17.48;51.75
44441;BME280;30146;52.268;20.944;2023-07-08T02:51:58;100898.88;;;17.46;51.87
44441;BME280;30146;52.268;20.944;2023-07-08T02:54:29;100902.50;;;17.46;51.94
44441;BME280;30146;52.268;20.944;2023-07-08T02:57:00;100901.46;;;17.46;52.13
44441;BME280;30146;52.268;20.944;2023-07-08T02:59:31;100905.59;;;17.47;52.22
44441;BME280;30146;52.268;20.944;2023-07-08T03:02:02;100906.76;;;17.49;52.25
44441;BME280;30146;52.268;20.944;2023-07-08T03:04:33;100909.50;;;17.49;52.32
44441;BME280;30146;52.268;20.944;2023-07-08T03:07:09;100912.78;;;17.50;52.26
44441;BME280;30146;52.268;20.944;2023-07-08T03:09:41;100910.37;;;17.49;52.35
44441;BME280;30146;52.268;20.944;2023-07-08T03:12:13;100908.11;;;17.50;52.46
44441;BME280;30146;52.268;20.944;2023-07-08T03:14:44;100911.55;;;17.50;52.38
44441;BME280;30146;52.268;20.944;2023-07-08T03:17:15;100914.30;;;17.51;52.46
44441;BME280;30146;52.268;20.944;2023-07-08T03:19:48;100914.94;;;17.53;52.56
44441;BME280;30146;52.268;20.944;2023-07-08T03:22:19;100919.36;;;17.55;52.58
44441;BME280;30146;52.268;20.944;2023-07-08T03:24:50;100922.20;;;17.59;52.71
44441;BME280;30146;52.268;20.944;2023-07-08T03:27:22;100918.06;;;17.64;52.81
44441;BME280;30146;52.268;20.944;2023-07-08T03:29:53;100915.46;;;17.70;52.82
44441;BME280;30146;52.268;20.944;2023-07-08T03:32:24;100916.80;;;17.77;52.87
44441;BME280;30146;52.268;20.944;2023-07-08T03:34:56;100921.11;;;17.84;52.84
44441;BME280;30146;52.268;20.944;2023-07-08T03:37:27;100917.92;;;17.93;52.84
44441;BME280;30146;52.268;20.944;2023-07-08T03:39:58;100917.65;;;18.02;52.83
44441;BME280;30146;52.268;20.944;2023-07-08T03:42:29;100921.38;;;18.10;52.52
44441;BME280;30146;52.268;20.944;2023-07-08T03:45:01;100921.78;;;18.19;52.51
44441;BME280;30146;52.268;20.944;2023-07-08T03:47:32;100920.40;;;18.29;52.49
44441;BME280;30146;52.268;20.944;2023-07-08T03:50:04;100914.32;;;18.41;52.39
44441;BME280;30146;52.268;20.944;2023-07-08T03:52:37;100914.74;;;18.54;52.42
44441;BME280;30146;52.268;20.944;2023-07-08T03:55:11;100914.96;;;18.69;52.28
44441;BME280;30146;52.268;20.944;2023-07-08T03:57:41;100912.61;;;18.82;52.01
44441;BME280;30146;52.268;20.944;2023-07-08T04:00:13;100913.30;;;18.93;51.69
44441;BME280;30146;52.268;20.944;2023-07-08T04:02:45;100915.45;;;19.05;51.58
44441;BME280;30146;52.268;20.944;2023-07-08T04:05:23;100915.60;;;19.20;51.53
44441;BME280;30146;52.268;20.944;2023-07-08T04:07:55;100913.76;;;19.33;51.24
44441;BME280;30146;52.268;20.944;2023-07-08T04:10:26;100912.86;;;19.48;51.20
44441;BME280;30146;52.268;20.944;2023-07-08T04:12:57;100915.50;;;19.65;51.22
44441;BME280;30146;52.268;20.944;2023-07-08T04:15:28;100916.09;;;19.82;51.11
44441;BME280;30146;52.268;20.944;2023-07-08T04:17:59;100908.34;;;20.03;50.86
44441;BME280;30146;52.268;20.944;2023-07-08T04:20:30;100908.44;;;20.27;50.83
44441;BME280;30146;52.268;20.944;2023-07-08T04:23:01;100907.48;;;20.50;50.56
44441;BME280;30146;52.268;20.944;2023-07-08T04:25:32;100903.34;;;20.74;50.13
44441;BME280;30146;52.268;20.944;2023-07-08T04:28:03;100904.64;;;21.01;49.62
44441;BME280;30146;52.268;20.944;2023-07-08T04:30:34;100908.33;;;21.31;49.51
44441;BME280;30146;52.268;20.944;2023-07-08T04:33:12;100903.16;;;21.69;48.82
44441;BME280;30146;52.268;20.944;2023-07-08T04:35:44;100906.26;;;22.09;48.34
44441;BME280;30146;52.268;20.944;2023-07-08T04:38:19;100901.48;;;22.54;47.77
44441;BME280;30146;52.268;20.944;2023-07-08T04:40:51;100898.39;;;23.14;47.40
44441;BME280;30146;52.268;20.944;2023-07-08T04:43:23;100897.81;;;23.80;46.94
44441;BME280;30146;52.268;20.944;2023-07-08T04:45:59;100896.04;;;24.47;46.37
44441;BME280;30146;52.268;20.944;2023-07-08T04:48:30;100895.65;;;25.18;45.75
44441;BME280;30146;52.268;20.944;2023-07-08T04:51:02;100897.80;;;25.93;45.02
44441;BME280;30146;52.268;20.944;2023-07-08T04:53:34;100901.27;;;26.70;44.58
44441;BME280;30146;52.268;20.944;2023-07-08T04:56:05;100900.88;;;27.47;43.87
44441;BME280;30146;52.268;20.944;2023-07-08T04:58:36;100896.64;;;28.22;43.11
44441;BME280;30146;52.268;20.944;2023-07-08T05:01:06;100893.35;;;28.93;41.70
44441;BME280;30146;52.268;20.944;2023-07-08T05:03:38;100892.30;;;29.53;40.71
44441;BME280;30146;52.268;20.944;2023-07-08T05:06:09;100893.03;;;30.14;39.71
44441;BME280;30146;52.268;20.944;2023-07-08T05:08:40;100896.55;;;30.73;38.81
44441;BME280;30146;52.268;20.944;2023-07-08T05:11:11;100897.15;;;31.21;37.50
44441;BME280;30146;52.268;20.944;2023-07-08T05:13:42;100902.30;;;31.69;36.59
44441;BME280;30146;52.268;20.944;2023-07-08T05:16:13;100899.02;;;32.19;36.06
44441;BME280;30146;52.268;20.944;2023-07-08T05:18:44;100896.83;;;32.73;35.51
44441;BME280;30146;52.268;20.944;2023-07-08T05:21:15;100895.65;;;33.30;35.14
44441;BME280;30146;52.268;20.944;2023-07-08T05:23:47;100893.34;;;33.90;34.58
44441;BME280;30146;52.268;20.944;2023-07-08T05:26:19;100893.50;;;34.48;34.21
44441;BME280;30146;52.268;20.944;2023-07-08T05:28:50;100890.18;;;35.03;33.63
44441;BME280;30146;52.268;20.944;2023-07-08T05:31:21;100892.87;;;35.52;32.68
44441;BME280;30146;52.268;20.944;2023-07-08T05:34:06;100894.93;;;35.97;31.64
44441;BME280;30146;52.268;20.944;2023-07-08T05:36:37;100895.21;;;36.34;30.88
44441;BME280;30146;52.268;20.944;2023-07-08T05:39:09;100895.73;;;36.70;30.48
44441;BME280;30146;52.268;20.944;2023-07-08T05:41:39;100893.76;;;37.13;30.21
44441;BME280;30146;52.268;20.944;2023-07-08T05:44:10;100894.66;;;37.55;29.67
44441;BME280;30146;52.268;20.944;2023-07-08T05:46:41;100892.55;;;37.91;29.21
44441;BME280;30146;52.268;20.944;2023-07-08T05:49:13;100892.99;;;38.24;28.60
44441;BME280;30146;52.268;20.944;2023-07-08T05:51:44;100895.23;;;38.59;28.20
44441;BME280;30146;52.268;20.944;2023-07-08T05:54:15;100890.48;;;38.93;27.68
44441;BME280;30146;52.268;20.944;2023-07-08T05:56:46;100891.04;;;39.25;27.12
44441;BME280;30146;52.268;20.944;2023-07-08T05:59:17;100891.55;;;39.37;25.95
44441;BME280;30146;52.268;20.944;2023-07-08T06:01:48;100889.38;;;39.43;25.72
44441;BME280;30146;52.268;20.944;2023-07-08T06:04:19;100888.67;;;39.50;25.21
44441;BME280;30146;52.268;20.944;2023-07-08T06:06:51;100885.67;;;39.51;24.80
44441;BME280;30146;52.268;20.944;2023-07-08T06:09:22;100883.71;;;39.52;24.59
44441;BME280;30146;52.268;20.944;2023-07-08T06:11:53;100881.13;;;39.53;24.56
44441;BME280;30146;52.268;20.944;2023-07-08T06:14:24;100885.46;;;39.63;24.74
44441;BME280;30146;52.268;20.944;2023-07-08T06:16:57;100885.79;;;39.73;24.61
44441;BME280;30146;52.268;20.944;2023-07-08T06:19:28;100882.42;;;39.84;24.74
44441;BME280;30146;52.268;20.944;2023-07-08T06:21:59;100880.27;;;39.97;24.38
44441;BME280;30146;52.268;20.944;2023-07-08T06:24:51;100881.70;;;40.01;23.46
44441;BME280;30146;52.268;20.944;2023-07-08T06:27:22;100881.09;;;40.00;23.54
44441;BME280;30146;52.268;20.944;2023-07-08T06:29:54;100880.02;;;40.08;23.63
44441;BME280;30146;52.268;20.944;2023-07-08T06:32:26;100880.66;;;40.11;23.43
44441;BME280;30146;52.268;20.944;2023-07-08T06:34:57;100877.67;;;40.16;23.44
44441;BME280;30146;52.268;20.944;2023-07-08T06:37:28;100875.84;;;40.14;23.24
44441;BME280;30146;52.268;20.944;2023-07-08T06:39:59;100873.51;;;40.10;23.05
44441;BME280;30146;52.268;20.944;2023-07-08T06:42:30;100872.45;;;40.07;23.36
44441;BME280;30146;52.268;20.944;2023-07-08T06:45:14;100872.48;;;39.99;22.72
44441;BME280;30146;52.268;20.944;2023-07-08T06:47:45;100874.10;;;39.76;22.35
44441;BME280;30146;52.268;20.944;2023-07-08T06:50:17;100873.84;;;39.54;22.54
44441;BME280;30146;52.268;20.944;2023-07-08T06:52:48;100870.78;;;39.29;22.50
44441;BME280;30146;52.268;20.944;2023-07-08T06:55:19;100869.86;;;38.99;22.19
44441;BME280;30146;52.268;20.944;2023-07-08T06:57:51;100867.16;;;38.73;22.32
44441;BME280;30146;52.268;20.944;2023-07-08T07:00:22;100863.90;;;38.54;22.85
44441;BME280;30146;52.268;20.944;2023-07-08T07:02:54;100863.02;;;38.39;23.00
44441;BME280;30146;52.268;20.944;2023-07-08T07:05:25;100862.25;;;38.26;23.25
44441;BME280;30146;52.268;20.944;2023-07-08T07:07:57;100857.36;;;38.18;23.20
44441;BME280;30146;52.268;20.944;2023-07-08T07:10:28;100852.35;;;38.02;23.06
44441;BME280;30146;52.268;20.944;2023-07-08T07:12:59;100853.33;;;37.88;22.85
44441;BME280;30146;52.268;20.944;2023-07-08T07:15:30;100851.65;;;37.70;23.06
44441;BME280;30146;52.268;20.944;2023-07-08T07:18:02;100850.54;;;37.57;23.32
44441;BME280;30146;52.268;20.944;2023-07-08T07:20:35;100849.92;;;37.39;23.10
44441;BME280;30146;52.268;20.944;2023-07-08T07:23:06;100849.46;;;37.23;23.36
44441;BME280;30146;52.268;20.944;2023-07-08T07:25:37;100849.92;;;37.08;23.37
44441;BME280;30146;52.268;20.944;2023-07-08T07:28:08;100847.33;;;36.91;22.99
44441;BME280;30146;52.268;20.944;2023-07-08T07:30:39;100844.99;;;36.76;23.15
44441;BME280;30146;52.268;20.944;2023-07-08T07:33:11;100845.77;;;36.59;23.12
44441;BME280;30146;52.268;20.944;2023-07-08T07:35:44;100843.92;;;36.39;22.84
44441;BME280;30146;52.268;20.944;2023-07-08T07:38:17;100844.08;;;36.22;22.73
44441;BME280;30146;52.268;20.944;2023-07-08T07:40:48;100845.80;;;36.01;22.86
44441;BME280;30146;52.268;20.944;2023-07-08T07:43:22;100845.31;;;35.84;22.87
44441;BME280;30146;52.268;20.944;2023-07-08T07:45:54;100840.06;;;35.69;23.06
44441;BME280;30146;52.268;20.944;2023-07-08T07:48:26;100841.61;;;35.54;23.29
44441;BME280;30146;52.268;20.944;2023-07-08T07:50:57;100842.55;;;35.45;23.55
44441;BME280;30146;52.268;20.944;2023-07-08T07:53:28;100842.66;;;35.39;23.31
44441;BME280;30146;52.268;20.944;2023-07-08T07:56:01;100841.82;;;35.34;23.57
44441;BME280;30146;52.268;20.944;2023-07-08T07:58:33;100844.59;;;35.30;23.76
44441;BME280;30146;52.268;20.944;2023-07-08T08:01:04;100843.42;;;35.22;23.24
44441;BME280;30146;52.268;20.944;2023-07-08T08:03:36;100843.99;;;35.15;23.52
44441;BME280;30146;52.268;20.944;2023-07-08T08:06:07;100837.25;;;35.10;23.38
44441;BME280;30146;52.268;20.944;2023-07-08T08:08:38;100836.01;;;35.01;23.32
44441;BME280;30146;52.268;20.944;2023-07-08T08:11:09;100833.95;;;34.96;23.41
44441;BME280;30146;52.268;20.944;2023-07-08T08:13:40;100827.27;;;34.88;23.54
44441;BME280;30146;52.268;20.944;2023-07-08T08:16:12;100831.87;;;34.80;23.59
44441;BME280;30146;52.268;20.944;2023-07-08T08:18:43;100828.00;;;34.71;23.42
44441;BME280;30146;52.268;20.944;2023-07-08T08:21:14;100829.91;;;34.62;23.84
44441;BME280;30146;52.268;20.944;2023-07-08T08:23:46;100828.73;;;34.59;23.48
44441;BME280;30146;52.268;20.944;2023-07-08T08:26:17;100827.64;;;34.55;23.44
44441;BME280;30146;52.268;20.944;2023-07-08T08:28:48;100834.77;;;34.50;23.40
44441;BME280;30146;52.268;20.944;2023-07-08T08:31:19;100840.89;;;34.42;23.33
44441;BME280;30146;52.268;20.944;2023-07-08T08:33:52;100842.27;;;34.36;23.18
44441;BME280;30146;52.268;20.944;2023-07-08T08:36:23;100843.89;;;34.36;23.27
44441;BME280;30146;52.268;20.944;2023-07-08T08:38:54;100840.89;;;34.33;23.50
44441;BME280;30146;52.268;20.944;2023-07-08T08:41:32;100838.84;;;34.32;23.66
44441;BME280;30146;52.268;20.944;2023-07-08T08:44:04;100835.41;;;34.31;23.39
44441;BME280;30146;52.268;20.944;2023-07-08T08:46:44;100838.66;;;34.29;23.22
44441;BME280;30146;52.268;20.944;2023-07-08T08:49:24;100832.52;;;34.21;23.21
44441;BME280;30146;52.268;20.944;2023-07-08T08:51:59;100832.58;;;33.98;23.18
44441;BME280;30146;52.268;20.944;2023-07-08T08:54:31;100831.86;;;33.70;23.18
44441;BME280;30146;52.268;20.944;2023-07-08T08:57:10;100831.64;;;33.50;23.56
44441;BME280;30146;52.268;20.944;2023-07-08T08:59:48;100829.25;;;33.26;23.54
44441;BME280;30146;52.268;20.944;2023-07-08T09:02:30;100826.13;;;33.11;23.74
44441;BME280;30146;52.268;20.944;2023-07-08T09:05:06;100827.30;;;32.93;23.81
44441;BME280;30146;52.268;20.944;2023-07-08T09:07:43;100826.91;;;32.71;23.94
44441;BME280;30146;52.268;20.944;2023-07-08T09:10:39;100830.05;;;32.53;23.85
44441;BME280;30146;52.268;20.944;2023-07-08T09:13:18;100828.27;;;32.40;23.90
44441;BME280;30146;52.268;20.944;2023-07-08T09:16:01;100830.71;;;32.34;24.02
44441;BME280;30146;52.268;20.944;2023-07-08T09:18:38;100831.16;;;32.39;24.30
44441;BME280;30146;52.268;20.944;2023-07-08T09:21:19;100831.77;;;32.44;24.41
44441;BME280;30146;52.268;20.944;2023-07-08T09:23:54;100834.17;;;32.37;24.77
44441;BME280;30146;52.268;20.944;2023-07-08T09:26:31;100836.33;;;32.20;24.23
44441;BME280;30146;52.268;20.944;2023-07-08T09:29:06;100832.43;;;32.06;23.94
44441;BME280;30146;52.268;20.944;2023-07-08T09:31:40;100830.45;;;31.99;24.51
44441;BME280;30146;52.268;20.944;2023-07-08T09:34:14;100827.52;;;31.94;24.68
44441;BME280;30146;52.268;20.944;2023-07-08T09:36:47;100833.89;;;32.00;24.99
44441;BME280;30146;52.268;20.944;2023-07-08T09:39:20;100830.36;;;32.08;24.69
44441;BME280;30146;52.268;20.944;2023-07-08T09:41:51;100827.15;;;32.17;24.47
44441;BME280;30146;52.268;20.944;2023-07-08T09:44:26;100824.23;;;32.22;24.43
44441;BME280;30146;52.268;20.944;2023-07-08T09:47:00;100823.89;;;32.16;24.60
44441;BME280;30146;52.268;20.944;2023-07-08T09:49:33;100826.98;;;32.04;24.70
44441;BME280;30146;52.268;20.944;2023-07-08T09:52:06;100829.15;;;31.92;24.77
44441;BME280;30146;52.268;20.944;2023-07-08T09:54:37;100823.73;;;31.93;24.68
44441;BME280;30146;52.268;20.944;2023-07-08T09:57:18;100820.77;;;31.96;24.42
44441;BME280;30146;52.268;20.944;2023-07-08T09:59:56;100812.23;;;31.99;24.11
44441;BME280;30146;52.268;20.944;2023-07-08T10:02:30;100810.36;;;32.04;24.53
44441;BME280;30146;52.268;20.944;2023-07-08T10:05:06;100804.55;;;32.12;24.55
44441;BME280;30146;52.268;20.944;2023-07-08T10:07:38;100810.46;;;32.15;24.20
44441;BME280;30146;52.268;20.944;2023-07-08T10:10:14;100810.73;;;32.10;24.45
44441;BME280;30146;52.268;20.944;2023-07-08T10:12:55;100818.88;;;32.00;24.53
44441;BME280;30146;52.268;20.944;2023-07-08T10:15:31;100818.66;;;31.83;24.63
44441;BME280;30146;52.268;20.944;2023-07-08T10:18:04;100812.84;;;31.75;24.48
44441;BME280;30146;52.268;20.944;2023-07-08T10:20:49;100806.02;;;31.70;24.65
44441;BME280;30146;52.268;20.944;2023-07-08T10:23:33;100798.95;;;31.70;24.26
44441;BME280;30146;52.268;20.944;2023-07-08T10:26:13;100803.02;;;31.76;24.47
44441;BME280;30146;52.268;20.944;2023-07-08T10:28:56;100803.82;;;31.81;24.21
44441;BME280;30146;52.268;20.944;2023-07-08T10:31:35;100802.44;;;31.75;24.06
44441;BME280;30146;52.268;20.944;2023-07-08T10:34:21;100803.31;;;31.59;24.26
44441;BME280;30146;52.268;20.944;2023-07-08T10:37:01;100800.35;;;31.43;24.35
44441;BME280;30146;52.268;20.944;2023-07-08T10:39:51;100799.04;;;31.36;24.58
44441;BME280;30146;52.268;20.944;2023-07-08T10:42:37;100794.55;;;31.35;24.84
44441;BME280;30146;52.268;20.944;2023-07-08T10:45:15;100792.54;;;31.35;24.65
44441;BME280;30146;52.268;20.944;2023-07-08T10:47:58;100794.80;;;31.36;24.99
44441;BME280;30146;52.268;20.944;2023-07-08T10:50:49;100794.69;;;31.32;25.31
44441;BME280;30146;52.268;20.944;2023-07-08T10:53:36;100788.83;;;31.20;25.23
44441;BME280;30146;52.268;20.944;2023-07-08T10:56:15;100790.29;;;31.17;25.67
44441;BME280;30146;52.268;20.944;2023-07-08T10:59:19;100783.47;;;31.21;25.33
44441;BME280;30146;52.268;20.944;2023-07-08T11:02:08;100785.02;;;31.29;25.32
44441;BME280;30146;52.268;20.944;2023-07-08T11:04:52;100785.92;;;31.34;25.45
44441;BME280;30146;52.268;20.944;2023-07-08T11:07:34;100777.50;;;31.32;25.79
44441;BME280;30146;52.268;20.944;2023-07-08T11:10:10;100773.65;;;31.25;25.92
44441;BME280;30146;52.268;20.944;2023-07-08T11:12:47;100775.23;;;31.21;25.67
44441;BME280;30146;52.268;20.944;2023-07-08T11:15:23;100774.15;;;31.10;25.37
44441;BME280;30146;52.268;20.944;2023-07-08T11:18:03;100779.38;;;30.99;25.22
44441;BME280;30146;52.268;20.944;2023-07-08T11:20:40;100773.56;;;30.97;25.12
44441;BME280;30146;52.268;20.944;2023-07-08T11:23:26;100761.44;;;30.98;25.18
44441;BME280;30146;52.268;20.944;2023-07-08T11:26:10;100757.23;;;31.02;25.44
44441;BME280;30146;52.268;20.944;2023-07-08T11:28:42;100747.90;;;31.06;25.32
44441;BME280;30146;52.268;20.944;2023-07-08T11:31:14;100747.48;;;31.00;24.83
44441;BME280;30146;52.268;20.944;2023-07-08T11:33:47;100754.20;;;30.92;25.06
44441;BME280;30146;52.268;20.944;2023-07-08T11:36:21;100755.73;;;30.84;25.23
44441;BME280;30146;52.268;20.944;2023-07-08T11:38:54;100756.88;;;30.76;25.55
44441;BME280;30146;52.268;20.944;2023-07-08T11:41:30;100758.17;;;30.67;25.56
44441;BME280;30146;52.268;20.944;2023-07-08T11:44:05;100755.73;;;30.66;25.69
44441;BME280;30146;52.268;20.944;2023-07-08T11:46:36;100756.58;;;30.71;25.77
44441;BME280;30146;52.268;20.944;2023-07-08T11:49:24;100753.91;;;30.77;25.53
44441;BME280;30146;52.268;20.944;2023-07-08T11:51:57;100750.88;;;30.80;25.49
44441;BME280;30146;52.268;20.944;2023-07-08T11:54:30;100750.66;;;30.78;25.71
44441;BME280;30146;52.268;20.944;2023-07-08T11:57:03;100754.59;;;30.74;25.69
44441;BME280;30146;52.268;20.944;2023-07-08T11:59:39;100756.74;;;30.67;25.87
44441;BME280;30146;52.268;20.944;2023-07-08T12:02:14;100752.96;;;30.60;25.74
44441;BME280;30146;52.268;20.944;2023-07-08T12:04:58;100751.44;;;30.53;25.57
44441;BME280;30146;52.268;20.944;2023-07-08T12:07:36;100749.18;;;30.45;25.73
44441;BME280;30146;52.268;20.944;2023-07-08T12:10:15;100747.85;;;30.35;25.83
44441;BME280;30146;52.268;20.944;2023-07-08T12:12:47;100749.77;;;30.31;25.94
44441;BME280;30146;52.268;20.944;2023-07-08T12:15:22;100744.60;;;30.26;26.09
44441;BME280;30146;52.268;20.944;2023-07-08T12:17:55;100743.46;;;30.21;26.04
44441;BME280;30146;52.268;20.944;2023-07-08T12:20:29;100736.25;;;30.16;26.26
44441;BME280;30146;52.268;20.944;2023-07-08T12:23:02;100733.63;;;30.10;26.26
44441;BME280;30146;52.268;20.944;2023-07-08T12:25:34;100734.89;;;30.03;26.29
44441;BME280;30146;52.268;20.944;2023-07-08T12:28:06;100727.34;;;30.01;26.48
44441;BME280;30146;52.268;20.944;2023-07-08T12:30:38;100722.96;;;30.03;26.40
44441;BME280;30146;52.268;20.944;2023-07-08T12:33:13;100720.59;;;30.06;26.37
44441;BME280;30146;52.268;20.944;2023-07-08T12:35:46;100718.09;;;30.08;26.59
44441;BME280;30146;52.268;20.944;2023-07-08T12:38:23;100717.65;;;30.09;26.84
44441;BME280;30146;52.268;20.944;2023-07-08T12:40:58;100716.90;;;30.09;26.47
44441;BME280;30146;52.268;20.944;2023-07-08T12:43:31;100720.42;;;30.09;26.77
44441;BME280;30146;52.268;20.944;2023-07-08T12:46:02;100714.90;;;30.08;26.44
44441;BME280;30146;52.268;20.944;2023-07-08T12:48:34;100712.36;;;30.05;26.19
44441;BME280;30146;52.268;20.944;2023-07-08T12:51:09;100713.55;;;29.97;26.18
44441;BME280;30146;52.268;20.944;2023-07-08T12:53:43;100707.92;;;29.86;26.27
44441;BME280;30146;52.268;20.944;2023-07-08T12:56:16;100705.62;;;29.81;26.46
44441;BME280;30146;52.268;20.944;2023-07-08T12:58:52;100702.79;;;29.77;26.44
44441;BME280;30146;52.268;20.944;2023-07-08T13:01:28;100698.30;;;29.75;26.29
44441;BME280;30146;52.268;20.944;2023-07-08T13:04:05;100693.11;;;29.74;26.28
44441;BME280;30146;52.268;20.944;2023-07-08T13:06:39;100692.38;;;29.75;26.47
44441;BME280;30146;52.268;20.944;2023-07-08T13:09:28;100693.30;;;29.76;26.40
44441;BME280;30146;52.268;20.944;2023-07-08T13:12:06;100693.56;;;29.80;26.44
44441;BME280;30146;52.268;20.944;2023-07-08T13:14:46;100694.64;;;29.82;26.35